Time;durP1;ratioP1;P1;durP2;ratioP2;P2;SDS_P1;SDS_P2;PMS_P1;PMS_P2;Temp;Humidity;BMP_temperature;BMP_pressure;BME280_temperature;BME280_humidity;BME280_pressure;Samples;Min_cycle;Max_cycle;Signal;HPM_P1;HPM_P2
2022/08/17 00:00:25;;;;;;;22.10;19.40;;;;;;;21.83;68.82;99885.91;110989;1254;21972;-76
2022/08/17 00:03:31;;;;;;;22.70;20.60;;;;;;;21.77;68.76;99891.07;110586;1254;21956;-75
2022/08/17 00:06:12;;;;;;;20.60;18.40;;;;;;;21.71;68.99;99892.02;110681;1254;23591;-75
2022/08/17 00:08:50;;;;;;;22.00;19.80;;;;;;;21.69;69.24;99889.03;110700;1254;21954;-76
2022/08/17 00:11:37;;;;;;;23.40;21.00;;;;;;;21.67;69.17;99889.44;110951;1253;21972;-76
2022/08/17 00:14:13;;;;;;;25.60;19.50;;;;;;;21.65;69.21;99889.81;110704;1254;21947;-75
2022/08/17 00:16:54;;;;;;;21.30;19.10;;;;;;;21.62;69.31;99889.13;110873;1253;23751;-75
2022/08/17 00:19:25;;;;;;;22.30;20.30;;;;;;;21.56;69.31;99890.41;111049;1252;23595;-76
2022/08/17 00:21:59;;;;;;;22.20;20.00;;;;;;;21.52;69.37;99889.60;110522;1251;22997;-75
2022/08/17 00:24:47;;;;;;;23.70;21.20;;;;;;;21.48;69.55;99888.70;110877;1250;23041;-74
2022/08/17 00:27:17;;;;;;;22.10;20.10;;;;;;;21.44;69.59;99892.90;109829;1251;1184237;-75
2022/08/17 00:29:47;;;;;;;23.60;21.30;;;;;;;21.40;69.58;99892.80;110725;1251;22210;-74
2022/08/17 00:32:16;;;;;;;22.60;20.50;;;;;;;21.37;69.71;99896.73;110272;1258;21958;-75
2022/08/17 00:35:08;;;;;;;22.20;20.20;;;;;;;21.32;69.92;99894.13;110346;1257;23589;-75
2022/08/17 00:37:37;;;;;;;21.60;19.70;;;;;;;21.29;70.17;99896.06;110495;1256;21964;-75
2022/08/17 00:40:12;;;;;;;21.20;19.00;;;;;;;21.28;70.16;99896.10;110378;1257;21991;-76
2022/08/17 00:42:43;;;;;;;21.40;19.30;;;;;;;21.24;70.03;99896.11;110348;1257;21964;-75
2022/08/17 00:45:15;;;;;;;21.50;19.60;;;;;;;21.21;69.95;99892.04;110474;1257;21969;-73
2022/08/17 00:47:44;;;;;;;22.80;20.50;;;;;;;21.17;70.16;99892.80;110421;1257;22767;-74
2022/08/17 00:50:17;;;;;;;22.00;20.00;;;;;;;21.14;70.20;99896.89;110578;1254;22020;-75
2022/08/17 00:52:56;;;;;;;21.80;19.90;;;;;;;21.10;70.30;99902.85;110684;1251;23418;-75
2022/08/17 00:55:26;;;;;;;25.80;20.90;;;;;;;21.04;70.46;99903.63;110411;1256;23060;-74
2022/08/17 00:58:01;;;;;;;23.60;21.40;;;;;;;20.99;70.41;99902.65;110411;1257;24273;-75
2022/08/17 01:00:40;;;;;;;21.40;19.50;;;;;;;20.96;70.84;99900.73;110541;1254;21965;-75
2022/08/17 01:03:19;;;;;;;26.30;22.50;;;;;;;20.92;71.05;99899.75;110299;1256;21956;-75
2022/08/17 01:05:52;;;;;;;24.00;21.80;;;;;;;20.89;71.27;99895.58;110569;1254;21958;-75
2022/08/17 01:08:26;;;;;;;23.30;21.30;;;;;;;20.86;71.30;99893.17;110640;1251;21961;-75
2022/08/17 01:11:00;;;;;;;23.90;21.80;;;;;;;20.83;71.39;99891.85;110414;1256;22000;-74
2022/08/17 01:13:42;;;;;;;25.60;23.30;;;;;;;20.81;71.65;99887.36;110547;1254;23673;-74
2022/08/17 01:16:37;;;;;;;23.60;21.60;;;;;;;20.77;71.57;99888.48;110590;1253;22700;-74
2022/08/17 01:19:40;;;;;;;24.90;22.30;;;;;;;20.72;71.59;99888.04;110786;1251;23702;-75
2022/08/17 01:22:22;;;;;;;22.50;20.20;;;;;;;20.68;71.96;99891.25;110385;1257;22032;-74
2022/08/17 01:24:55;;;;;;;;;;;;;;;20.64;71.99;99889.84;110281;1257;23590;-74
2022/08/17 01:27:25;;;;;;;23.50;21.10;;;;;;;20.55;72.32;99891.89;110274;1257;23583;-75
2022/08/17 01:30:01;;;;;;;22.40;20.50;;;;;;;20.53;72.31;99894.28;110188;1258;23679;-74
2022/08/17 01:32:30;;;;;;;23.50;21.10;;;;;;;20.53;72.12;99894.75;110306;1257;21960;-75
2022/08/17 01:35:01;;;;;;;22.00;20.10;;;;;;;20.51;72.24;99893.54;110284;1257;22037;-75
2022/08/17 01:37:34;;;;;;;24.60;22.20;;;;;;;20.49;72.24;99893.52;110060;1257;22366;-75
2022/08/17 01:40:42;;;;;;;23.00;21.10;;;;;;;20.46;72.26;99895.43;110366;1257;21954;-75
2022/08/17 01:43:23;;;;;;;23.90;21.60;;;;;;;20.42;72.30;99893.75;110375;1257;23575;-75
2022/08/17 01:45:55;;;;;;;22.30;20.30;;;;;;;20.38;72.38;99893.00;110264;1258;22019;-75
2022/08/17 01:48:35;;;;;;;25.20;22.90;;;;;;;20.37;72.70;99892.71;110266;1257;22142;-75
2022/08/17 01:51:06;;;;;;;29.20;23.00;;;;;;;20.36;72.79;99894.52;110246;1257;23605;-73
2022/08/17 01:53:41;;;;;;;24.40;21.90;;;;;;;20.36;72.82;99894.89;110515;1256;23068;-74
2022/08/17 01:56:14;;;;;;;25.80;22.60;;;;;;;20.34;72.65;99896.69;110482;1256;21978;-75
2022/08/17 01:58:44;;;;;;;24.30;22.20;;;;;;;20.32;72.77;99896.27;110447;1253;22770;-75
2022/08/17 02:01:23;;;;;;;25.30;22.90;;;;;;;20.30;72.80;99898.61;110753;1251;21968;-75
2022/08/17 02:03:54;;;;;;;23.20;20.80;;;;;;;20.29;72.76;99897.77;110657;1253;21977;-75
2022/08/17 02:06:32;;;;;;;23.80;21.70;;;;;;;20.26;72.76;99896.39;110645;1254;21966;-75
2022/08/17 02:09:24;;;;;;;26.30;23.70;;;;;;;20.22;72.83;99897.72;110751;1251;22358;-77
2022/08/17 02:12:02;;;;;;;26.60;23.00;;;;;;;20.19;72.93;99900.34;110774;1251;23041;-76
2022/08/17 02:14:51;;;;;;;24.20;21.90;;;;;;;20.16;72.86;99900.52;110558;1251;23587;-76
2022/08/17 02:17:19;;;;;;;26.30;23.90;;;;;;;20.14;72.86;99901.75;110737;1251;23570;-76
2022/08/17 02:19:48;;;;;;;24.70;22.10;;;;;;;20.12;72.94;99904.04;110647;1253;21965;-76
2022/08/17 02:22:18;;;;;;;28.10;25.20;;;;;;;20.10;72.94;99900.41;110647;1253;23052;-76
2022/08/17 02:24:47;;;;;;;28.10;25.40;;;;;;;20.08;73.12;99898.43;110782;1251;23593;-76
2022/08/17 02:27:29;;;;;;;28.60;26.00;;;;;;;20.05;73.10;99897.75;110679;1250;21963;-76
2022/08/17 02:29:58;;;;;;;29.10;26.40;;;;;;;20.04;73.35;99894.08;110889;1250;22029;-76
2022/08/17 02:32:28;;;;;;;31.00;28.00;;;;;;;20.04;73.43;99900.55;110859;1253;22420;-75
2022/08/17 02:34:59;;;;;;;29.20;26.70;;;;;;;20.03;73.66;99899.58;110755;1251;22005;-76
2022/08/17 02:37:29;;;;;;;29.20;26.50;;;;;;;20.01;73.69;99902.45;110876;1250;22184;-75
2022/08/17 02:39:58;;;;;;;29.70;26.90;;;;;;;20.00;73.65;99903.06;110741;1253;21979;-75
2022/08/17 02:42:35;;;;;;;29.30;26.50;;;;;;;19.99;73.64;99904.50;110680;1253;24290;-74
2022/08/17 02:45:10;;;;;;;31.60;28.80;;;;;;;19.97;73.64;99902.80;110660;1250;21953;-75
2022/08/17 02:47:39;;;;;;;31.10;28.00;;;;;;;19.96;73.67;99902.45;110547;1251;21971;-75
2022/08/17 02:50:11;;;;;;;36.60;33.00;;;;;;;19.94;73.82;99902.27;110505;1251;21953;-74
2022/08/17 02:52:43;;;;;;;32.50;29.30;;;;;;;19.93;73.78;99902.30;110579;1251;23680;-75
2022/08/17 02:55:31;;;;;;;31.70;28.40;;;;;;;19.91;73.73;99903.05;110665;1251;23725;-75
2022/08/17 02:58:02;;;;;;;29.80;27.00;;;;;;;19.88;73.72;99903.65;110709;1251;22058;-74
2022/08/17 03:00:40;;;;;;;31.60;28.60;;;;;;;19.87;73.98;99899.98;110669;1251;21973;-75
2022/08/17 03:03:12;;;;;;;35.10;31.50;;;;;;;19.85;73.87;99901.27;110683;1251;23049;-74
2022/08/17 03:05:41;;;;;;;32.20;28.50;;;;;;;19.82;73.82;99904.23;110691;1251;22059;-76
2022/08/17 03:08:10;;;;;;;29.30;26.30;;;;;;;19.80;73.86;99905.75;110697;1250;21953;-74
2022/08/17 03:10:43;;;;;;;29.90;27.10;;;;;;;19.78;73.83;99910.17;110761;1253;21979;-75
2022/08/17 03:13:13;;;;;;;27.60;24.90;;;;;;;19.76;73.76;99912.49;110948;1250;22985;-74
2022/08/17 03:15:44;;;;;;;33.10;29.90;;;;;;;19.74;73.70;99913.41;110752;1251;22752;-74
2022/08/17 03:18:18;;;;;;;33.50;30.10;;;;;;;19.72;73.85;99913.80;110456;1256;23602;-75
2022/08/17 03:20:57;;;;;;;34.90;31.00;;;;;;;19.70;74.04;99911.38;110303;1254;21976;-73
2022/08/17 03:23:27;;;;;;;32.60;29.50;;;;;;;19.70;74.00;99909.15;110165;1257;23033;-75
2022/08/17 03:25:59;;;;;;;32.40;29.30;;;;;;;19.69;74.10;99908.60;109954;1260;24343;-74
2022/08/17 03:28:28;;;;;;;30.80;27.50;;;;;;;19.68;74.15;99912.49;109979;1260;23853;-75
2022/08/17 03:30:57;;;;;;;31.40;27.80;;;;;;;19.67;74.08;99919.65;110006;1260;21996;-75
2022/08/17 03:33:26;;;;;;;33.80;27.80;;;;;;;19.65;74.06;99923.84;109993;1260;22217;-74
2022/08/17 03:35:55;;;;;;;36.50;29.20;;;;;;;19.63;74.12;99924.27;109882;1260;21975;-75
2022/08/17 03:38:25;;;;;;;36.30;28.00;;;;;;;19.62;74.25;99920.19;110228;1258;21966;-74
2022/08/17 03:40:54;;;;;;;42.40;29.70;;;;;;;19.61;74.31;99923.70;110183;1258;21971;-74
2022/08/17 03:43:29;;;;;;;35.20;31.70;;;;;;;19.61;74.39;99927.49;109969;1254;23603;-74
2022/08/17 03:57:31;;;;;;;37.80;34.10;;;;;;;19.57;74.61;99935.52;110671;1250;21965;-75
2022/08/17 04:00:00;;;;;;;38.20;34.50;;;;;;;19.56;74.68;99934.51;110679;1251;21959;-75
2022/08/17 04:02:41;;;;;;;36.00;32.20;;;;;;;19.55;74.86;99935.84;110672;1250;22007;-76
2022/08/17 04:05:10;;;;;;;34.70;31.30;;;;;;;19.57;74.94;99943.97;110659;1250;21972;-74
2022/08/17 04:07:40;;;;;;;35.60;31.80;;;;;;;19.59;74.91;99949.52;110639;1250;21962;-75
2022/08/17 04:10:09;;;;;;;35.90;32.30;;;;;;;19.58;74.77;99952.45;110756;1250;21971;-75
2022/08/17 04:12:53;;;;;;;35.40;32.00;;;;;;;19.58;74.88;99950.67;110684;1250;23567;-75
2022/08/17 04:15:22;;;;;;;36.30;32.50;;;;;;;19.59;75.00;99951.81;110655;1251;21963;-75
2022/08/17 04:17:51;;;;;;;36.40;32.90;;;;;;;19.61;75.18;99960.46;110904;1250;21972;-74
2022/08/17 04:20:23;;;;;;;36.50;32.90;;;;;;;19.64;74.99;99961.39;111329;1250;21952;-75
2022/08/17 04:23:00;;;;;;;37.30;33.60;;;;;;;19.67;75.11;99962.48;110737;1250;22915;-73
2022/08/17 04:25:33;;;;;;;37.40;33.70;;;;;;;19.70;75.24;99961.21;110921;1250;22989;-74
2022/08/17 04:28:04;;;;;;;45.30;32.30;;;;;;;19.73;75.14;99971.98;110728;1253;23066;-75
2022/08/17 04:30:46;;;;;;;52.60;33.90;;;;;;;19.76;75.05;99969.89;110686;1250;22101;-75
2022/08/17 04:33:22;;;;;;;51.60;34.10;;;;;;;19.77;75.01;99971.84;110747;1251;23039;-76
2022/08/17 04:35:56;;;;;;;38.10;32.50;;;;;;;19.80;74.88;99968.52;110690;1250;23674;-75
2022/08/17 04:38:33;;;;;;;49.30;38.20;;;;;;;19.84;74.92;99970.09;110546;1251;21967;-75
2022/08/17 04:43:54;;;;;;;44.30;35.00;;;;;;;19.93;74.97;99977.04;110695;1253;21977;-75
2022/08/17 04:46:31;;;;;;;47.80;37.10;;;;;;;19.98;75.05;99979.16;110666;1253;23583;-74
2022/08/17 04:49:05;;;;;;;69.40;42.20;;;;;;;20.03;75.07;99980.07;110703;1250;22706;-73
2022/08/17 04:51:39;;;;;;;74.20;47.20;;;;;;;20.09;74.90;99982.50;110624;1250;21966;-74
2022/08/17 04:54:23;;;;;;;48.10;42.60;;;;;;;20.16;74.91;99988.38;110716;1250;21970;-75
2022/08/17 04:56:52;;;;;;;46.20;40.60;;;;;;;20.23;74.69;99984.48;110662;1253;21983;-76
2022/08/17 04:59:21;;;;;;;46.30;41.00;;;;;;;20.30;74.54;99985.23;110717;1251;21956;-74
2022/08/17 05:01:51;;;;;;;41.70;37.20;;;;;;;20.36;74.58;99989.00;110740;1250;21984;-74
2022/08/17 05:04:24;;;;;;;50.70;45.70;;;;;;;20.43;74.38;99992.94;110748;1251;23125;-75
2022/08/17 05:07:03;;;;;;;65.30;45.20;;;;;;;20.51;74.30;99990.69;110672;1250;21965;-75
2022/08/17 05:09:32;;;;;;;63.30;45.20;;;;;;;20.58;74.18;99989.75;110707;1250;23047;-75
2022/08/17 05:12:01;;;;;;;65.70;58.70;;;;;;;20.65;74.03;99993.25;110896;1250;21970;-75
2022/08/17 05:14:30;;;;;;;60.50;54.50;;;;;;;20.73;73.85;99995.95;110658;1250;21963;-75
2022/08/17 05:17:01;;;;;;;80.50;73.10;;;;;;;20.81;73.71;99993.41;110684;1250;23625;-75
2022/08/17 05:19:38;;;;;;;73.90;66.20;;;;;;;20.88;73.70;99993.15;110770;1251;21971;-75
2022/08/17 05:22:07;;;;;;;66.10;59.80;;;;;;;20.97;73.35;99995.37;110753;1251;23880;-75
2022/08/17 05:24:36;;;;;;;67.80;61.00;;;;;;;21.06;73.33;99993.29;110921;1250;23024;-75
2022/08/17 05:27:11;;;;;;;62.50;56.40;;;;;;;21.15;72.91;100001.33;110717;1251;21956;-74
2022/08/17 05:29:46;;;;;;;63.90;57.00;;;;;;;21.24;73.00;100004.05;110931;1250;21971;-75
2022/08/17 05:32:15;;;;;;;53.20;47.70;;;;;;;21.35;72.88;100004.02;110889;1250;21957;-76
2022/08/17 05:35:05;;;;;;;51.10;45.80;;;;;;;21.52;72.80;100007.73;110941;1249;22892;-76
2022/08/17 05:37:34;;;;;;;50.50;45.80;;;;;;;21.67;72.72;100006.05;110973;1250;22318;-76
2022/08/17 05:40:06;;;;;;;45.40;41.50;;;;;;;21.81;72.32;100004.41;110863;1250;21966;-76
2022/08/17 05:42:39;;;;;;;48.10;43.20;;;;;;;21.95;72.14;99998.28;110787;1251;22831;-75
2022/08/17 05:45:30;;;;;;;;;;;;;;;;;;;;;
2022/08/17 05:49:29;;;;;;;37.90;34.10;;;;;;;22.36;71.76;99996.23;110543;1254;21964;-76
2022/08/17 05:52:38;;;;;;;;;;;;;;;;;;;;;
2022/08/17 05:55:55;;;;;;;31.20;27.90;;;;;;;22.95;70.92;99994.77;110378;1256;22485;-77
2022/08/17 05:59:17;;;;;;;31.00;28.10;;;;;;;23.26;69.97;99993.84;110149;1259;21971;-77
2022/08/17 06:02:15;;;;;;;31.60;28.70;;;;;;;23.57;69.71;99996.66;110030;1259;22986;-76
2022/08/17 06:05:47;;;;;;;34.00;31.10;;;;;;;23.96;69.55;99998.46;109487;1264;21966;-77
2022/08/17 06:09:06;;;;;;;30.40;27.60;;;;;;;24.45;68.35;99999.95;109713;1263;21979;-75
2022/08/17 06:11:57;;;;;;;28.20;25.30;;;;;;;24.94;66.98;100001.86;109316;1265;22279;-76
2022/08/17 06:14:32;;;;;;;;;;;;;;;25.40;65.79;99997.96;109263;1266;21963;-76
2022/08/17 06:17:21;;;;;;;32.00;28.80;;;;;;;25.74;64.51;100003.94;109279;1265;21979;-75
2022/08/17 06:19:59;;;;;;;38.30;25.50;;;;;;;26.09;63.88;100004.98;109151;1268;21972;-75
2022/08/17 06:22:39;;;;;;;38.30;26.80;;;;;;;26.50;62.40;100002.20;109166;1262;22421;-75
2022/08/17 06:25:28;;;;;;;40.30;28.40;;;;;;;26.83;61.00;100001.48;109267;1262;21970;-75
2022/08/17 06:28:19;;;;;;;56.00;42.40;;;;;;;27.18;60.46;99997.16;109730;1262;22198;-75
2022/08/17 06:31:20;;;;;;;49.20;43.90;;;;;;;27.59;59.33;99998.23;109416;1264;22435;-75
2022/08/17 06:34:02;;;;;;;35.50;31.90;;;;;;;27.92;57.82;100001.52;109566;1263;22931;-73
2022/08/17 06:37:14;;;;;;;29.30;25.50;;;;;;;28.24;57.06;100006.00;109902;1260;22692;-74
2022/08/17 06:40:14;;;;;;;30.70;24.50;;;;;;;28.58;55.96;100005.23;110154;1259;22040;-75
2022/08/17 06:43:43;;;;;;;23.80;21.30;;;;;;;28.84;54.93;100006.55;110335;1259;23065;-76
2022/08/17 06:46:33;;;;;;;25.10;18.90;;;;;;;29.24;54.88;100007.61;109805;1262;22733;-76
2022/08/17 06:49:50;;;;;;;23.40;21.00;;;;;;;29.54;53.53;100008.96;110140;1256;21976;-77
2022/08/17 06:53:06;;;;;;;23.80;19.80;;;;;;;29.72;52.38;100011.57;110153;1257;22992;-75
2022/08/17 06:56:31;;;;;;;21.20;18.50;;;;;;;29.90;52.62;100010.76;110263;1257;22373;-74
2022/08/17 06:59:35;;;;;;;23.40;18.50;;;;;;;30.25;52.11;100013.54;109318;1263;22469;-77
2022/08/17 07:03:12;;;;;;;20.70;18.00;;;;;;;30.51;51.36;100015.19;109726;1263;22520;-77
2022/08/17 07:06:53;;;;;;;30.70;20.00;;;;;;;30.84;51.37;100011.84;109701;1263;21946;-75
2022/08/17 07:09:38;;;;;;;20.30;17.20;;;;;;;31.13;49.88;100013.80;108903;1271;23045;-76
2022/08/17 07:12:23;;;;;;;19.80;16.00;;;;;;;31.35;49.49;100011.46;108456;1276;21982;-76
2022/08/17 07:15:04;;;;;;;17.50;14.80;;;;;;;31.65;49.08;100010.89;108415;1276;22098;-77
2022/08/17 07:17:34;;;;;;;17.40;13.50;;;;;;;31.87;48.10;100012.80;108495;1276;22595;-77
2022/08/17 07:20:21;;;;;;;18.70;13.10;;;;;;;32.12;47.36;100012.98;108321;1276;22013;-76
2022/08/17 07:23:18;;;;;;;17.70;13.30;;;;;;;32.35;46.95;100020.73;108198;1279;23775;-76
2022/08/17 07:25:49;;;;;;;18.90;13.00;;;;;;;32.57;45.29;100020.34;108079;1280;22010;-76
2022/08/17 07:28:22;;;;;;;15.20;12.10;;;;;;;32.72;44.64;100020.03;107593;1286;23673;-77
2022/08/17 07:30:53;;;;;;;12.90;11.60;;;;;;;32.87;44.28;100021.39;107683;1288;22989;-76
2022/08/17 07:33:35;;;;;;;17.60;11.40;;;;;;;33.02;43.67;100019.57;107485;1287;22157;-76
2022/08/17 07:36:24;;;;;;;13.40;11.50;;;;;;;33.19;43.32;100019.34;107869;1279;23106;-75
2022/08/17 07:38:59;;;;;;;14.10;12.70;;;;;;;33.36;42.65;100019.20;108346;1279;22116;-76
2022/08/17 07:41:39;;;;;;;15.90;12.60;;;;;;;33.48;42.14;100026.52;108544;1272;22000;-76
2022/08/17 07:44:26;;;;;;;14.20;11.80;;;;;;;33.57;42.04;100031.31;108860;1267;21975;-77
2022/08/17 07:50:28;;;;;;;16.60;11.80;;;;;;;33.66;41.43;100029.90;110298;1256;21987;-77
2022/08/17 07:53:15;;;;;;;13.60;10.50;;;;;;;33.76;41.50;100030.41;110064;1257;21984;-77
2022/08/17 07:56:08;;;;;;;;;;;;;;;;;;;;;
2022/08/17 07:59:18;;;;;;;13.50;11.60;;;;;;;33.91;40.77;100034.38;110310;1256;22049;-76
2022/08/17 08:01:53;;;;;;;13.20;11.90;;;;;;;33.95;40.57;100039.54;110069;1256;24367;-76
2022/08/17 08:04:38;;;;;;;15.10;11.10;;;;;;;33.99;40.26;100042.95;110436;1256;22046;-77
2022/08/17 08:07:49;;;;;;;12.60;10.80;;;;;;;33.99;39.75;100043.00;110272;1250;23583;-77
2022/08/17 08:10:40;;;;;;;15.70;10.40;;;;;;;34.03;39.35;100042.63;110587;1250;21969;-75
2022/08/17 08:13:27;;;;;;;15.80;12.60;;;;;;;34.06;39.37;100046.34;110691;1250;22010;-76
2022/08/17 08:16:25;;;;;;;12.50;11.00;;;;;;;34.10;39.02;100047.99;110562;1253;23026;-75
2022/08/17 08:19:00;;;;;;;12.90;11.10;;;;;;;34.12;38.84;100050.75;109951;1258;21982;-76
2022/08/17 08:22:14;;;;;;;12.80;11.50;;;;;;;34.09;38.63;100051.18;110245;1256;21969;-76
2022/08/17 08:25:14;;;;;;;12.00;10.80;;;;;;;34.06;39.21;100051.30;108944;1267;22484;-76
2022/08/17 08:28:07;;;;;;;12.30;10.20;;;;;;;34.16;38.83;100052.23;108991;1267;24364;-75
2022/08/17 08:30:48;;;;;;;16.10;11.10;;;;;;;34.27;38.31;100053.84;108990;1266;21982;-76
2022/08/17 08:33:53;;;;;;;13.40;11.60;;;;;;;34.36;38.26;100057.18;108563;1270;22064;-75
2022/08/17 08:37:08;;;;;;;11.40;10.20;;;;;;;34.39;37.66;100060.23;108544;1270;22659;-75
2022/08/17 08:40:07;;;;;;;9.90;9.00;;;;;;;34.44;37.51;100060.10;108431;1276;22040;-76
2022/08/17 08:43:01;;;;;;;10.40;9.50;;;;;;;34.53;37.28;100060.20;108121;1278;23895;-75
2022/08/17 08:46:24;;;;;;;10.10;9.10;;;;;;;34.65;36.88;100061.52;108488;1273;22003;-75
2022/08/17 08:50:08;;;;;;;12.10;9.70;;;;;;;34.76;35.98;100062.20;108120;1280;23121;-75
2022/08/17 08:53:05;;;;;;;10.90;9.60;;;;;;;34.77;35.96;100060.99;108081;1281;22001;-75
2022/08/17 08:56:41;;;;;;;10.00;9.10;;;;;;;34.84;35.72;100062.17;108107;1280;22065;-76
2022/08/17 08:59:56;;;;;;;10.40;9.20;;;;;;;34.93;35.52;100064.86;108183;1273;22002;-76
2022/08/17 09:03:16;;;;;;;9.20;8.10;;;;;;;35.08;35.28;100064.23;108913;1269;22270;-75
2022/08/17 09:06:15;;;;;;;8.40;7.50;;;;;;;35.21;34.40;100065.44;108847;1270;23022;-75
2022/08/17 09:09:20;;;;;;;15.20;8.00;;;;;;;35.24;33.95;100060.46;108624;1273;21950;-75
2022/08/17 09:12:01;;;;;;;11.50;8.20;;;;;;;35.29;34.08;100057.40;108435;1276;22463;-75
2022/08/17 09:14:47;;;;;;;10.70;7.70;;;;;;;35.49;33.94;100057.15;108457;1276;22474;-75
2022/08/17 09:17:38;;;;;;;8.50;7.40;;;;;;;35.63;33.13;100056.11;108029;1282;23625;-76
2022/08/17 09:20:58;;;;;;;10.20;6.80;;;;;;;35.61;32.53;100054.26;108078;1281;22000;-74
2022/08/17 09:23:48;;;;;;;10.60;7.70;;;;;;;35.66;32.72;100055.29;107783;1287;21998;-76
2022/08/17 09:26:39;;;;;;;10.20;7.40;;;;;;;35.77;32.41;100052.17;107859;1281;21998;-76
2022/08/17 09:29:16;;;;;;;13.40;9.40;;;;;;;35.92;32.68;100050.59;108119;1276;21990;-75
2022/08/17 09:31:56;;;;;;;15.10;7.70;;;;;;;35.95;32.65;100055.71;108410;1276;22003;-75
2022/08/17 09:34:46;;;;;;;10.90;7.60;;;;;;;35.93;32.38;100056.66;108831;1270;22023;-75
2022/08/17 09:37:38;;;;;;;11.50;7.50;;;;;;;35.97;32.30;100052.64;109223;1267;22051;-77
2022/08/17 09:40:36;;;;;;;10.30;7.10;;;;;;;35.99;32.41;100048.14;108868;1270;22062;-76
2022/08/17 09:43:51;;;;;;;9.00;7.00;;;;;;;36.05;32.24;100048.58;108548;1273;21976;-76
2022/08/17 09:46:43;;;;;;;9.20;7.80;;;;;;;35.98;31.78;100047.11;108623;1273;22005;-76
2022/08/17 09:49:22;;;;;;;10.60;7.50;;;;;;;35.90;31.88;100043.09;108566;1271;21986;-76
2022/08/17 09:52:17;;;;;;;10.00;7.50;;;;;;;35.87;32.12;100038.66;108780;1273;23757;-77
2022/08/17 09:54:52;;;;;;;8.70;7.80;;;;;;;35.84;32.29;100035.02;108926;1267;21979;-76
2022/08/17 09:57:52;;;;;;;13.80;7.30;;;;;;;35.81;32.24;100035.42;108866;1270;21995;-76
2022/08/17 10:00:34;;;;;;;10.30;6.90;;;;;;;35.69;31.70;100033.80;108673;1273;22006;-75
2022/08/17 10:03:48;;;;;;;9.90;7.30;;;;;;;35.56;32.61;100029.40;108712;1273;22240;-77
2022/08/17 10:06:32;;;;;;;7.90;7.10;;;;;;;35.73;32.69;100025.03;108948;1268;23055;-77
2022/08/17 10:09:12;;;;;;;7.70;7.00;;;;;;;35.91;32.22;100026.23;108813;1270;23611;-76
2022/08/17 10:15:21;;;;;;;7.80;7.00;;;;;;;35.87;31.79;100023.73;108888;1270;21996;-77
2022/08/17 10:18:24;;;;;;;12.90;6.90;;;;;;;36.00;31.85;100022.59;108821;1270;22347;-76
2022/08/17 10:27:53;;;;;;;9.40;7.00;;;;;;;36.04;31.41;100022.50;109617;1261;21988;-76
2022/08/17 10:30:35;;;;;;;10.80;7.30;;;;;;;36.12;31.23;100012.52;109338;1261;23706;-76
2022/08/17 10:33:22;;;;;;;10.70;6.80;;;;;;;36.18;30.33;100015.65;110000;1254;23011;-76
2022/08/17 10:36:16;;;;;;;12.00;9.80;;;;;;;36.13;30.13;100020.39;109640;1260;21979;-75
2022/08/17 10:38:58;;;;;;;9.50;6.80;;;;;;;36.03;30.71;100020.49;109906;1260;24458;-74
2022/08/17 10:41:41;;;;;;;9.30;7.00;;;;;;;35.99;30.37;100020.33;109861;1256;22406;-75
2022/08/17 10:44:47;;;;;;;24.00;12.30;;;;;;;35.86;30.20;100017.44;109993;1256;21987;-75
2022/08/17 10:47:17;;;;;;;11.90;8.70;;;;;;;35.47;30.61;100019.58;109940;1256;23034;-75
2022/08/17 10:49:52;;;;;;;9.10;8.20;;;;;;;35.27;30.95;100026.04;110154;1256;22004;-75
2022/08/17 10:52:22;;;;;;;23.20;12.10;;;;;;;35.13;30.61;100029.02;110019;1256;21986;-75
2022/08/17 10:55:12;;;;;;;12.30;7.40;;;;;;;34.84;30.81;100020.25;110623;1253;23590;-75
2022/08/17 10:57:48;;;;;;;10.80;7.20;;;;;;;34.59;30.99;100016.06;110697;1253;23077;-76
2022/08/17 11:00:19;;;;;;;9.50;8.30;;;;;;;34.38;30.89;100012.52;110683;1253;21975;-76
2022/08/17 11:03:04;;;;;;;10.80;7.40;;;;;;;34.07;31.28;100009.34;110913;1250;21965;-75
2022/08/17 11:06:12;;;;;;;9.80;6.60;;;;;;;33.86;31.84;100012.66;110876;1250;22976;-75
2022/08/17 11:09:00;;;;;;;9.90;7.00;;;;;;;33.69;31.95;100013.79;110941;1250;21960;-79
2022/08/17 11:11:46;;;;;;;8.80;7.90;;;;;;;33.52;32.19;100013.41;110729;1253;22501;-78
2022/08/17 11:14:22;;;;;;;11.30;7.80;;;;;;;33.07;32.42;100011.24;110844;1251;22724;-78
2022/08/17 11:17:19;;;;;;;7.20;6.50;;;;;;;32.70;33.54;100009.13;110903;1250;23591;-77
2022/08/17 11:20:27;;;;;;;8.90;6.70;;;;;;;32.59;33.41;100013.88;110701;1250;23098;-76
2022/08/17 11:23:15;;;;;;;9.90;7.80;;;;;;;32.36;33.65;100012.02;110918;1250;21960;-77
2022/08/17 11:25:56;;;;;;;8.40;7.60;;;;;;;32.10;34.07;100009.45;110588;1250;23734;-77
2022/08/17 11:28:34;;;;;;;8.40;7.60;;;;;;;31.89;34.65;100008.15;110957;1250;21968;-78
2022/08/17 11:31:27;;;;;;;9.20;8.40;;;;;;;31.71;35.22;100014.88;110777;1253;22076;-76
2022/08/17 11:34:22;;;;;;;10.80;7.80;;;;;;;31.64;35.28;100017.01;110737;1250;22376;-77
2022/08/17 11:37:12;;;;;;;9.60;8.40;;;;;;;31.61;36.14;100010.02;111018;1248;23794;-78
2022/08/17 11:40:15;;;;;;;8.00;7.30;;;;;;;31.75;36.06;100006.23;110729;1250;23018;-78
2022/08/17 11:43:19;;;;;;;10.90;7.50;;;;;;;31.81;35.78;100006.13;110607;1250;23802;-77
2022/08/17 11:52:47;;;;;;;7.70;6.90;;;;;;;31.59;36.07;100002.76;110665;1253;21996;-77
2022/08/17 11:55:35;;;;;;;10.70;7.00;;;;;;;31.66;36.35;100005.18;110509;1253;23651;-77
2022/08/17 11:58:28;;;;;;;7.30;6.70;;;;;;;31.74;35.20;100005.52;110708;1253;21959;-78
2022/08/17 12:01:00;;;;;;;8.50;6.60;;;;;;;31.54;35.23;100004.38;110521;1253;23012;-78
2022/08/17 12:03:33;;;;;;;6.90;6.30;;;;;;;31.39;35.81;99995.85;109947;1256;21960;-77
2022/08/17 12:06:43;;;;;;;7.60;6.40;;;;;;;31.48;35.93;99994.11;110564;1254;21977;-78
2022/08/17 12:09:23;;;;;;;5.30;4.80;;;;;;;31.68;35.62;99998.76;110229;1256;22404;-77
2022/08/17 12:11:56;;;;;;;6.80;6.00;;;;;;;31.81;34.11;99997.09;110556;1255;24287;-78
2022/08/17 12:14:56;;;;;;;;;;;;;;;31.93;33.78;99995.59;110393;1256;22890;-78
2022/08/17 12:17:52;;;;;;;6.50;4.90;;;;;;;31.93;33.56;99996.85;110157;1259;23687;-78
2022/08/17 12:20:41;;;;;;;5.30;4.80;;;;;;;31.95;33.32;99994.48;109922;1259;21984;-77
2022/08/17 12:24:05;;;;;;;5.90;5.40;;;;;;;31.96;33.18;99986.15;109823;1262;22349;-77
2022/08/17 12:27:00;;;;;;;6.00;5.40;;;;;;;31.94;32.86;99983.96;104915;1266;5793848;-77
2022/08/17 12:29:35;;;;;;;7.40;5.90;;;;;;;31.95;32.76;99988.27;108756;1270;22007;-78
2022/08/17 12:32:18;;;;;;;6.30;5.50;;;;;;;31.98;33.03;99986.90;108628;1276;21987;-77
2022/08/17 12:34:55;;;;;;;6.20;4.40;;;;;;;32.04;32.84;99986.17;108243;1279;23625;-76
2022/08/17 12:37:33;;;;;;;8.40;6.40;;;;;;;32.11;32.52;99987.32;108483;1275;22063;-78
2022/08/17 12:40:25;;;;;;;7.40;5.60;;;;;;;32.14;32.66;99988.45;108499;1276;21997;-77
2022/08/17 12:43:01;;;;;;;5.60;5.00;;;;;;;32.10;32.61;99984.54;108254;1279;24212;-78
2022/08/17 12:45:43;;;;;;;5.80;4.40;;;;;;;32.05;32.45;99984.52;108341;1274;22000;-78
2022/08/17 12:48:24;;;;;;;6.20;5.70;;;;;;;32.03;32.27;99980.77;108749;1270;23600;-78
2022/08/17 12:51:17;;;;;;;9.30;5.40;;;;;;;32.00;32.57;99981.50;108850;1267;24331;-76
2022/08/17 12:53:54;;;;;;;6.20;5.00;;;;;;;31.97;32.66;99977.54;108817;1264;23705;-77
2022/08/17 12:56:23;;;;;;;5.80;5.30;;;;;;;31.94;32.39;99975.88;109341;1263;21993;-77
2022/08/17 12:58:58;;;;;;;6.60;5.10;;;;;;;31.90;32.42;99975.17;109014;1270;21963;-78
2022/08/17 13:01:40;;;;;;;6.80;5.60;;;;;;;31.87;32.26;99975.65;108851;1270;21993;-75
2022/08/17 13:04:14;;;;;;;5.90;4.60;;;;;;;31.84;32.71;99973.02;108940;1267;23810;-78
2022/08/17 13:07:00;;;;;;;15.60;6.70;;;;;;;31.83;32.20;99972.19;108939;1264;21983;-81